CFG1389 LGKL-EDDH
Flight info
| Callsign | CFG1389 |
|---|---|
| Flight time | 2h 51m |
| Altitude | 32000 |
| Route | ANEPI DCT TRL UM601 KFN UN731 YNN UL604 DIMIS DCT OBUTI DCT PISAM DCT HDO DCT BOLBO DCT ESIKA M748 RARUP RARUP3P |
| Aircraft | A21N/M-SBDE3FGHIJ1J4J7LORVWXYZ/SB2D1G1 |
Departure
| Time | 2026-05-04 17:06 |
|---|---|
| Airport | Kalamata Airport (LGKL) |
Arrival
| Time | 2026-05-04 19:58 |
|---|---|
| Airport | Hamburg Helmut Schmidt Airport (EDDH) |
| Time | Latitude | Longitude | Altitude | Speed | Heading |
|---|---|---|---|---|---|
| 2026-05-04 16:36 | 37.05536 | 22.03253 | 38 ft | 0 kts | 292° |
| 2026-05-04 17:01 | 37.05530 | 22.03231 | 40 ft | 4 kts | 243° |
| 2026-05-04 17:01 | 37.05515 | 22.03153 | 40 ft | 6 kts | 284° |
| 2026-05-04 17:02 | 37.05546 | 22.03023 | 40 ft | 9 kts | 275° |
| 2026-05-04 17:02 | 37.05607 | 22.02950 | 39 ft | 7 kts | 349° |
| 2026-05-04 17:03 | 37.05660 | 22.02938 | 38 ft | 8 kts | 350° |
| 2026-05-04 17:03 | 37.05720 | 22.02926 | 39 ft | 9 kts | 352° |
| 2026-05-04 17:03 | 37.05774 | 22.02794 | 35 ft | 11 kts | 304° |
| 2026-05-04 17:04 | 37.05812 | 22.02778 | 36 ft | 0 kts | 353° |
| 2026-05-04 17:05 | 37.06306 | 22.02668 | 37 ft | 98 kts | 349° |
| 2026-05-04 17:05 | 37.08272 | 22.02192 | 583 ft | 157 kts | 349° |
| 2026-05-04 17:06 | 37.10430 | 22.01373 | 1576 ft | 175 kts | 344° |
| 2026-05-04 17:06 | 37.11645 | 22.00966 | 1991 ft | 189 kts | 343° |
| 2026-05-04 17:07 | 37.14416 | 22.00018 | 2729 ft | 228 kts | 342° |
| 2026-05-04 17:07 | 37.15460 | 21.99657 | 2983 ft | 241 kts | 343° |
| 2026-05-04 17:07 | 37.17666 | 21.98894 | 3916 ft | 249 kts | 344° |
| 2026-05-04 17:07 | 37.19350 | 21.98311 | 4719 ft | 252 kts | 344° |
| 2026-05-04 17:08 | 37.21045 | 21.97724 | 5501 ft | 255 kts | 345° |
| 2026-05-04 17:08 | 37.24489 | 21.96529 | 7071 ft | 258 kts | 345° |
| 2026-05-04 17:08 | 37.26232 | 21.95925 | 7785 ft | 261 kts | 345° |
| 2026-05-04 17:09 | 37.27991 | 21.95316 | 8487 ft | 264 kts | 345° |
| 2026-05-04 17:09 | 37.29771 | 21.94698 | 9185 ft | 266 kts | 345° |
| 2026-05-04 17:09 | 37.31560 | 21.94075 | 9889 ft | 268 kts | 345° |
| 2026-05-04 17:10 | 37.35208 | 21.92473 | 10711 ft | 291 kts | 329° |
| 2026-05-04 17:10 | 37.39362 | 21.85967 | 11530 ft | 344 kts | 306° |
| 2026-05-04 17:11 | 37.40699 | 21.83424 | 12097 ft | 349 kts | 306° |
| 2026-05-04 17:11 | 37.42051 | 21.80880 | 12763 ft | 351 kts | 307° |
| 2026-05-04 17:11 | 37.44790 | 21.75777 | 14096 ft | 354 kts | 307° |
| 2026-05-04 17:12 | 37.46181 | 21.73212 | 14697 ft | 355 kts | 307° |
| 2026-05-04 17:12 | 37.48973 | 21.68045 | 15876 ft | 358 kts | 307° |
| 2026-05-04 17:13 | 37.53135 | 21.60320 | 17577 ft | 363 kts | 307° |
| 2026-05-04 17:14 | 37.57418 | 21.52365 | 19089 ft | 371 kts | 307° |
| 2026-05-04 17:14 | 37.58864 | 21.49669 | 19547 ft | 373 kts | 307° |
| 2026-05-04 17:14 | 37.61786 | 21.44209 | 20453 ft | 377 kts | 307° |
| 2026-05-04 17:15 | 37.63259 | 21.41460 | 20912 ft | 379 kts | 307° |
| 2026-05-04 17:15 | 37.66247 | 21.35870 | 21805 ft | 384 kts | 307° |
| 2026-05-04 17:16 | 37.69246 | 21.30245 | 22652 ft | 388 kts | 307° |
| 2026-05-04 17:16 | 37.73806 | 21.21695 | 23867 ft | 394 kts | 307° |
| 2026-05-04 17:17 | 37.75337 | 21.18814 | 24218 ft | 396 kts | 307° |
| 2026-05-04 17:17 | 37.79965 | 21.10096 | 25233 ft | 400 kts | 306° |
| 2026-05-04 17:18 | 37.81519 | 21.07163 | 25571 ft | 402 kts | 306° |
| 2026-05-04 17:18 | 37.84637 | 21.01269 | 26245 ft | 405 kts | 306° |
| 2026-05-04 17:19 | 37.87779 | 20.95325 | 26903 ft | 408 kts | 306° |
| 2026-05-04 17:19 | 37.90938 | 20.89325 | 27517 ft | 411 kts | 307° |
| 2026-05-04 17:20 | 37.94094 | 20.83326 | 28344 ft | 408 kts | 306° |
| 2026-05-04 17:20 | 37.97218 | 20.77345 | 29095 ft | 405 kts | 306° |
| 2026-05-04 17:20 | 37.98773 | 20.74373 | 29457 ft | 404 kts | 306° |
| 2026-05-04 17:21 | 38.01861 | 20.68484 | 30203 ft | 402 kts | 306° |
| 2026-05-04 17:21 | 38.04944 | 20.62592 | 30772 ft | 400 kts | 306° |
| 2026-05-04 17:22 | 38.06503 | 20.59683 | 31031 ft | 398 kts | 309° |
| 2026-05-04 17:22 | 38.08319 | 20.57050 | 31283 ft | 395 kts | 317° |
| 2026-05-04 17:23 | 38.15557 | 20.52316 | 31961 ft | 398 kts | 346° |
| 2026-05-04 17:23 | 38.18328 | 20.51966 | 32150 ft | 403 kts | 356° |
| 2026-05-04 17:24 | 38.26769 | 20.53444 | 32143 ft | 409 kts | 4° |
| 2026-05-04 17:25 | 38.38028 | 20.55676 | 32141 ft | 409 kts | 4° |
| 2026-05-04 17:26 | 38.49286 | 20.57876 | 32148 ft | 409 kts | 4° |
| 2026-05-04 17:27 | 38.63313 | 20.60625 | 32148 ft | 408 kts | 4° |
| 2026-05-04 17:28 | 38.74552 | 20.62839 | 32144 ft | 407 kts | 4° |
| 2026-05-04 17:29 | 38.91303 | 20.66164 | 32143 ft | 408 kts | 4° |
| 2026-05-04 17:31 | 39.05312 | 20.68995 | 32148 ft | 407 kts | 4° |
| 2026-05-04 17:32 | 39.19286 | 20.71808 | 32134 ft | 405 kts | 4° |
| 2026-05-04 17:33 | 39.30454 | 20.74067 | 32139 ft | 406 kts | 4° |
| 2026-05-04 17:34 | 39.41623 | 20.76345 | 32132 ft | 406 kts | 4° |
| 2026-05-04 17:35 | 39.54664 | 20.79010 | 32142 ft | 407 kts | 5° |
| 2026-05-04 17:36 | 39.60261 | 20.80147 | 32141 ft | 407 kts | 5° |
| 2026-05-04 17:36 | 39.65869 | 20.81283 | 32167 ft | 407 kts | 4° |
| 2026-05-04 17:37 | 39.71467 | 20.80933 | 32143 ft | 403 kts | 345° |
| 2026-05-04 17:37 | 39.76632 | 20.78199 | 32143 ft | 400 kts | 334° |
| 2026-05-04 17:38 | 39.81649 | 20.75090 | 32141 ft | 400 kts | 334° |
| 2026-05-04 17:38 | 39.86677 | 20.72016 | 32134 ft | 399 kts | 335° |
| 2026-05-04 17:39 | 39.94260 | 20.67387 | 32137 ft | 403 kts | 335° |
| 2026-05-04 17:39 | 39.99335 | 20.64296 | 32117 ft | 403 kts | 335° |
| 2026-05-04 17:40 | 40.04422 | 20.61186 | 32114 ft | 403 kts | 335° |
| 2026-05-04 17:40 | 40.09503 | 20.58084 | 32124 ft | 403 kts | 335° |
| 2026-05-04 17:41 | 40.14593 | 20.54971 | 32124 ft | 404 kts | 335° |
| 2026-05-04 17:41 | 40.19672 | 20.51851 | 32125 ft | 404 kts | 335° |
| 2026-05-04 17:42 | 40.24768 | 20.48727 | 32115 ft | 404 kts | 335° |
| 2026-05-04 17:42 | 40.29863 | 20.45589 | 32106 ft | 404 kts | 335° |
| 2026-05-04 17:43 | 40.34960 | 20.42449 | 32118 ft | 404 kts | 335° |
| 2026-05-04 17:43 | 40.40067 | 20.39298 | 32128 ft | 406 kts | 335° |
| 2026-05-04 17:44 | 40.45181 | 20.36127 | 32128 ft | 406 kts | 335° |
| 2026-05-04 17:44 | 40.50302 | 20.32956 | 32129 ft | 406 kts | 335° |
| 2026-05-04 17:45 | 40.55405 | 20.29779 | 32131 ft | 406 kts | 335° |
| 2026-05-04 17:45 | 40.60519 | 20.26611 | 32135 ft | 407 kts | 335° |
| 2026-05-04 17:46 | 40.65650 | 20.23416 | 32135 ft | 408 kts | 335° |
| 2026-05-04 17:46 | 40.70779 | 20.20207 | 32126 ft | 408 kts | 335° |
| 2026-05-04 17:47 | 40.75910 | 20.17004 | 32126 ft | 408 kts | 335° |
| 2026-05-04 17:47 | 40.81042 | 20.13802 | 32150 ft | 408 kts | 335° |
| 2026-05-04 17:48 | 40.86175 | 20.10577 | 32133 ft | 410 kts | 335° |
| 2026-05-04 17:48 | 40.91316 | 20.07313 | 32131 ft | 410 kts | 335° |
| 2026-05-04 17:49 | 40.96470 | 20.04054 | 32135 ft | 410 kts | 335° |
| 2026-05-04 17:49 | 41.01624 | 20.00809 | 32136 ft | 410 kts | 335° |
| 2026-05-04 17:50 | 41.06782 | 19.97570 | 32134 ft | 410 kts | 335° |
| 2026-05-04 17:50 | 41.11906 | 19.94359 | 32141 ft | 410 kts | 335° |
| 2026-05-04 17:51 | 41.17054 | 19.91100 | 32138 ft | 410 kts | 335° |
| 2026-05-04 17:51 | 41.22231 | 19.87810 | 32142 ft | 410 kts | 335° |
| 2026-05-04 17:52 | 41.27379 | 19.84541 | 32147 ft | 410 kts | 335° |
| 2026-05-04 17:52 | 41.32549 | 19.81246 | 32141 ft | 413 kts | 335° |
| 2026-05-04 17:53 | 41.37722 | 19.77945 | 32132 ft | 412 kts | 334° |
| 2026-05-04 17:53 | 41.42854 | 19.74659 | 32141 ft | 411 kts | 334° |
| 2026-05-04 17:54 | 41.48016 | 19.71352 | 32142 ft | 412 kts | 334° |
| 2026-05-04 17:54 | 41.53190 | 19.68036 | 32146 ft | 413 kts | 334° |
| 2026-05-04 17:55 | 41.58413 | 19.64674 | 32134 ft | 414 kts | 334° |
| 2026-05-04 17:55 | 41.63605 | 19.61329 | 32132 ft | 414 kts | 334° |
| 2026-05-04 17:56 | 41.68799 | 19.57976 | 32126 ft | 414 kts | 334° |
| 2026-05-04 17:56 | 41.73992 | 19.54634 | 32127 ft | 414 kts | 335° |
| 2026-05-04 17:57 | 41.79208 | 19.51266 | 32125 ft | 416 kts | 335° |
| 2026-05-04 17:57 | 41.84418 | 19.47882 | 32120 ft | 416 kts | 334° |
| 2026-05-04 17:58 | 41.89596 | 19.44507 | 32110 ft | 414 kts | 334° |
| 2026-05-04 17:58 | 41.94817 | 19.41119 | 32108 ft | 414 kts | 334° |
| 2026-05-04 17:59 | 42.00011 | 19.37739 | 32113 ft | 415 kts | 334° |
| 2026-05-04 18:00 | 42.07722 | 19.32679 | 32112 ft | 414 kts | 334° |
| 2026-05-04 18:00 | 42.12914 | 19.29291 | 32106 ft | 414 kts | 334° |
| 2026-05-04 18:01 | 42.18101 | 19.25888 | 32102 ft | 415 kts | 334° |
| 2026-05-04 18:01 | 42.23304 | 19.22472 | 32111 ft | 417 kts | 334° |
| 2026-05-04 18:02 | 42.31149 | 19.17297 | 32113 ft | 417 kts | 334° |
| 2026-05-04 18:02 | 42.36365 | 19.13850 | 32112 ft | 417 kts | 334° |
| 2026-05-04 18:03 | 42.41588 | 19.10412 | 32102 ft | 417 kts | 334° |
| 2026-05-04 18:03 | 42.46818 | 19.06940 | 32106 ft | 419 kts | 334° |
| 2026-05-04 18:04 | 42.52017 | 19.03482 | 32108 ft | 419 kts | 334° |
| 2026-05-04 18:05 | 42.59902 | 18.98232 | 32113 ft | 419 kts | 334° |
| 2026-05-04 18:05 | 42.65142 | 18.94743 | 32119 ft | 420 kts | 334° |
| 2026-05-04 18:06 | 42.72970 | 18.89506 | 32116 ft | 420 kts | 334° |
| 2026-05-04 18:06 | 42.78242 | 18.85973 | 32113 ft | 420 kts | 334° |
| 2026-05-04 18:07 | 42.83453 | 18.82475 | 32119 ft | 420 kts | 334° |
| 2026-05-04 18:07 | 42.88691 | 18.78934 | 32118 ft | 421 kts | 334° |
| 2026-05-04 18:08 | 42.93950 | 18.75392 | 32103 ft | 422 kts | 333° |
| 2026-05-04 18:08 | 42.99213 | 18.71844 | 32110 ft | 421 kts | 334° |
| 2026-05-04 18:09 | 43.09747 | 18.64708 | 32111 ft | 422 kts | 334° |
| 2026-05-04 18:10 | 43.14128 | 18.61729 | 32111 ft | 422 kts | 333° |
| 2026-05-04 18:10 | 43.19379 | 18.58146 | 32104 ft | 422 kts | 333° |
| 2026-05-04 18:11 | 43.24653 | 18.54559 | 32112 ft | 422 kts | 333° |
| 2026-05-04 18:11 | 43.29918 | 18.50968 | 32109 ft | 422 kts | 333° |
| 2026-05-04 18:12 | 43.35185 | 18.47366 | 32115 ft | 423 kts | 333° |
| 2026-05-04 18:12 | 43.40447 | 18.43757 | 32115 ft | 422 kts | 333° |
| 2026-05-04 18:13 | 43.45715 | 18.40128 | 32109 ft | 424 kts | 333° |
| 2026-05-04 18:14 | 43.53634 | 18.34679 | 32109 ft | 424 kts | 333° |
| 2026-05-04 18:14 | 43.58919 | 18.31034 | 32098 ft | 424 kts | 333° |
| 2026-05-04 18:15 | 43.69472 | 18.23678 | 32064 ft | 425 kts | 333° |
| 2026-05-04 18:16 | 43.74743 | 18.20005 | 32059 ft | 425 kts | 333° |
| 2026-05-04 18:16 | 43.79998 | 18.16352 | 32055 ft | 425 kts | 333° |
| 2026-05-04 18:17 | 43.87916 | 18.10818 | 32056 ft | 425 kts | 333° |
| 2026-05-04 18:18 | 43.95846 | 18.05274 | 32065 ft | 425 kts | 333° |
| 2026-05-04 18:18 | 44.01137 | 18.01563 | 32060 ft | 426 kts | 333° |
| 2026-05-04 18:19 | 44.09080 | 17.95977 | 32062 ft | 427 kts | 333° |
| 2026-05-04 18:19 | 44.14377 | 17.92243 | 32062 ft | 427 kts | 333° |
| 2026-05-04 18:20 | 44.19688 | 17.88486 | 32074 ft | 427 kts | 333° |
| 2026-05-04 18:20 | 44.24988 | 17.84729 | 32067 ft | 427 kts | 333° |
| 2026-05-04 18:21 | 44.30293 | 17.80977 | 32067 ft | 427 kts | 333° |
| 2026-05-04 18:21 | 44.35387 | 17.77363 | 32059 ft | 429 kts | 333° |
| 2026-05-04 18:22 | 44.40768 | 17.73548 | 32068 ft | 429 kts | 333° |
| 2026-05-04 18:22 | 44.46101 | 17.69754 | 32059 ft | 430 kts | 333° |
| 2026-05-04 18:23 | 44.51427 | 17.65943 | 32049 ft | 429 kts | 332° |
| 2026-05-04 18:23 | 44.56737 | 17.62099 | 32044 ft | 429 kts | 332° |
| 2026-05-04 18:24 | 44.62061 | 17.58293 | 32047 ft | 431 kts | 332° |
| 2026-05-04 18:24 | 44.67630 | 17.54297 | 32037 ft | 431 kts | 332° |
| 2026-05-04 18:25 | 44.72793 | 17.50582 | 32030 ft | 431 kts | 332° |
| 2026-05-04 18:25 | 44.78130 | 17.46727 | 32025 ft | 431 kts | 332° |
| 2026-05-04 18:26 | 44.83497 | 17.42832 | 32028 ft | 431 kts | 332° |
| 2026-05-04 18:26 | 44.88840 | 17.38964 | 32026 ft | 431 kts | 332° |
| 2026-05-04 18:27 | 44.94179 | 17.35081 | 32022 ft | 432 kts | 332° |
| 2026-05-04 18:27 | 44.99516 | 17.31194 | 32027 ft | 432 kts | 332° |
| 2026-05-04 18:28 | 45.04855 | 17.27284 | 32036 ft | 432 kts | 332° |
| 2026-05-04 18:28 | 45.10198 | 17.23362 | 32032 ft | 433 kts | 332° |
| 2026-05-04 18:29 | 45.15548 | 17.19452 | 32026 ft | 433 kts | 332° |
| 2026-05-04 18:29 | 45.20888 | 17.15531 | 32024 ft | 433 kts | 332° |
| 2026-05-04 18:30 | 45.28930 | 17.09606 | 32032 ft | 434 kts | 332° |
| 2026-05-04 18:31 | 45.34285 | 17.05644 | 32025 ft | 434 kts | 332° |
| 2026-05-04 18:31 | 45.39603 | 17.01702 | 32025 ft | 434 kts | 332° |
| 2026-05-04 18:32 | 45.44991 | 16.97699 | 32019 ft | 434 kts | 332° |
| 2026-05-04 18:32 | 45.50304 | 16.93745 | 32015 ft | 434 kts | 332° |
| 2026-05-04 18:33 | 45.55660 | 16.89751 | 32014 ft | 434 kts | 332° |
| 2026-05-04 18:33 | 45.61051 | 16.85719 | 32024 ft | 435 kts | 332° |
| 2026-05-04 18:34 | 45.66378 | 16.81745 | 32009 ft | 435 kts | 332° |
| 2026-05-04 18:34 | 45.71739 | 16.77725 | 32010 ft | 435 kts | 331° |
| 2026-05-04 18:35 | 45.77135 | 16.73656 | 32006 ft | 435 kts | 332° |
| 2026-05-04 18:35 | 45.82504 | 16.69622 | 32008 ft | 436 kts | 331° |
| 2026-05-04 18:36 | 45.87876 | 16.65567 | 32008 ft | 436 kts | 331° |
| 2026-05-04 18:36 | 45.93249 | 16.61504 | 32000 ft | 436 kts | 331° |
| 2026-05-04 18:37 | 45.98613 | 16.57430 | 31999 ft | 436 kts | 331° |
| 2026-05-04 18:37 | 46.03997 | 16.53342 | 32000 ft | 437 kts | 331° |
| 2026-05-04 18:38 | 46.09363 | 16.49254 | 32002 ft | 437 kts | 331° |
| 2026-05-04 18:38 | 46.14742 | 16.45139 | 32003 ft | 438 kts | 331° |
| 2026-05-04 18:39 | 46.20130 | 16.41008 | 32009 ft | 438 kts | 331° |
| 2026-05-04 18:39 | 46.25513 | 16.36874 | 31999 ft | 438 kts | 331° |
| 2026-05-04 18:40 | 46.30915 | 16.32725 | 31993 ft | 438 kts | 331° |
| 2026-05-04 18:40 | 46.36291 | 16.28613 | 31992 ft | 438 kts | 333° |
| 2026-05-04 18:41 | 46.42089 | 16.25884 | 31996 ft | 441 kts | 345° |
| 2026-05-04 18:41 | 46.48082 | 16.23899 | 31988 ft | 442 kts | 346° |
| 2026-05-04 18:42 | 46.54073 | 16.21906 | 31990 ft | 442 kts | 345° |
| 2026-05-04 18:42 | 46.60065 | 16.19876 | 31985 ft | 442 kts | 345° |
| 2026-05-04 18:43 | 46.66054 | 16.17851 | 31992 ft | 442 kts | 346° |
| 2026-05-04 18:43 | 46.71076 | 16.16167 | 31987 ft | 442 kts | 345° |
| 2026-05-04 18:44 | 46.77056 | 16.14133 | 31981 ft | 442 kts | 345° |
| 2026-05-04 18:44 | 46.83045 | 16.12094 | 31980 ft | 442 kts | 345° |
| 2026-05-04 18:45 | 46.89030 | 16.10049 | 31979 ft | 442 kts | 345° |
| 2026-05-04 18:45 | 46.95016 | 16.07995 | 31979 ft | 442 kts | 345° |
| 2026-05-04 18:46 | 47.01007 | 16.05929 | 31981 ft | 442 kts | 345° |
| 2026-05-04 18:46 | 47.06998 | 16.03871 | 31981 ft | 442 kts | 345° |
| 2026-05-04 18:47 | 47.12982 | 16.01801 | 31980 ft | 442 kts | 346° |
| 2026-05-04 18:47 | 47.18976 | 15.99734 | 31979 ft | 442 kts | 346° |
| 2026-05-04 18:48 | 47.24959 | 15.97657 | 31979 ft | 442 kts | 345° |
| 2026-05-04 18:48 | 47.30934 | 15.95575 | 31980 ft | 442 kts | 346° |
| 2026-05-04 18:49 | 47.36907 | 15.93501 | 31976 ft | 441 kts | 345° |
| 2026-05-04 18:49 | 47.42899 | 15.91411 | 31980 ft | 441 kts | 344° |
| 2026-05-04 18:50 | 47.48868 | 15.89318 | 31970 ft | 441 kts | 345° |
| 2026-05-04 18:50 | 47.54848 | 15.87216 | 31988 ft | 441 kts | 344° |
| 2026-05-04 18:51 | 47.60817 | 15.85098 | 31976 ft | 441 kts | 345° |
| 2026-05-04 18:51 | 47.66778 | 15.82974 | 31965 ft | 441 kts | 345° |
| 2026-05-04 18:52 | 47.72749 | 15.80878 | 31971 ft | 441 kts | 345° |
| 2026-05-04 18:52 | 47.78724 | 15.78776 | 31957 ft | 441 kts | 345° |
| 2026-05-04 18:53 | 47.84679 | 15.76673 | 31947 ft | 443 kts | 345° |
| 2026-05-04 18:53 | 47.90681 | 15.74540 | 31948 ft | 443 kts | 344° |
| 2026-05-04 18:54 | 47.96673 | 15.72401 | 31937 ft | 443 kts | 345° |
| 2026-05-04 18:54 | 48.02678 | 15.70254 | 31928 ft | 443 kts | 345° |
| 2026-05-04 18:55 | 48.08707 | 15.68095 | 31928 ft | 443 kts | 345° |
| 2026-05-04 18:55 | 48.17686 | 15.64869 | 31918 ft | 443 kts | 345° |
| 2026-05-04 18:56 | 48.23642 | 15.62709 | 31925 ft | 443 kts | 345° |
| 2026-05-04 18:56 | 48.29654 | 15.60532 | 31917 ft | 443 kts | 344° |
| 2026-05-04 18:57 | 48.35671 | 15.58366 | 31906 ft | 445 kts | 344° |
| 2026-05-04 18:57 | 48.41693 | 15.56182 | 31903 ft | 445 kts | 344° |
| 2026-05-04 18:58 | 48.47718 | 15.53988 | 31915 ft | 444 kts | 344° |
| 2026-05-04 18:58 | 48.53700 | 15.51807 | 31910 ft | 443 kts | 344° |
| 2026-05-04 18:59 | 48.59693 | 15.49613 | 31915 ft | 443 kts | 344° |
| 2026-05-04 18:59 | 48.65686 | 15.47412 | 31919 ft | 443 kts | 344° |
| 2026-05-04 19:00 | 48.71682 | 15.45213 | 31921 ft | 442 kts | 344° |
| 2026-05-04 19:00 | 48.77657 | 15.43012 | 31930 ft | 443 kts | 343° |
| 2026-05-04 19:01 | 48.83663 | 15.40789 | 31926 ft | 445 kts | 343° |
| 2026-05-04 19:01 | 48.89679 | 15.38499 | 31924 ft | 444 kts | 341° |
| 2026-05-04 19:02 | 48.95529 | 15.35720 | 31932 ft | 442 kts | 340° |
| 2026-05-04 19:02 | 49.01385 | 15.32899 | 31929 ft | 442 kts | 340° |
| 2026-05-04 19:03 | 49.07250 | 15.30071 | 31934 ft | 442 kts | 340° |
| 2026-05-04 19:03 | 49.13119 | 15.27238 | 31934 ft | 442 kts | 340° |
| 2026-05-04 19:04 | 49.18976 | 15.24402 | 31942 ft | 441 kts | 339° |
| 2026-05-04 19:04 | 49.24820 | 15.21565 | 31938 ft | 443 kts | 339° |
| 2026-05-04 19:05 | 49.30717 | 15.18698 | 31936 ft | 444 kts | 339° |
| 2026-05-04 19:05 | 49.36610 | 15.15821 | 31938 ft | 444 kts | 339° |
| 2026-05-04 19:06 | 49.42491 | 15.12950 | 31937 ft | 444 kts | 339° |
| 2026-05-04 19:06 | 49.48366 | 15.10060 | 31937 ft | 443 kts | 339° |
| 2026-05-04 19:07 | 49.54245 | 15.07164 | 31938 ft | 443 kts | 339° |
| 2026-05-04 19:07 | 49.60115 | 15.04254 | 31938 ft | 443 kts | 339° |
| 2026-05-04 19:08 | 49.65985 | 15.01338 | 31937 ft | 443 kts | 339° |
| 2026-05-04 19:08 | 49.71894 | 14.98415 | 31941 ft | 446 kts | 339° |
| 2026-05-04 19:09 | 49.77814 | 14.95500 | 31940 ft | 447 kts | 339° |
| 2026-05-04 19:09 | 49.83728 | 14.92568 | 31936 ft | 447 kts | 339° |
| 2026-05-04 19:10 | 49.89646 | 14.89611 | 31938 ft | 447 kts | 339° |
| 2026-05-04 19:10 | 49.95550 | 14.86644 | 31941 ft | 445 kts | 339° |
| 2026-05-04 19:11 | 50.01440 | 14.83695 | 31937 ft | 445 kts | 339° |
| 2026-05-04 19:11 | 50.07343 | 14.80738 | 31934 ft | 445 kts | 339° |
| 2026-05-04 19:12 | 50.16189 | 14.76270 | 31938 ft | 446 kts | 339° |
| 2026-05-04 19:13 | 50.22099 | 14.73288 | 31936 ft | 446 kts | 339° |
| 2026-05-04 19:13 | 50.28007 | 14.70289 | 31936 ft | 446 kts | 338° |
| 2026-05-04 19:14 | 50.33915 | 14.67278 | 31939 ft | 446 kts | 339° |
| 2026-05-04 19:14 | 50.39821 | 14.64269 | 31937 ft | 446 kts | 338° |
| 2026-05-04 19:15 | 50.45714 | 14.61247 | 31941 ft | 444 kts | 338° |
| 2026-05-04 19:15 | 50.51527 | 14.58000 | 31933 ft | 443 kts | 328° |
| 2026-05-04 19:16 | 50.55718 | 14.53423 | 31962 ft | 442 kts | 319° |
| 2026-05-04 19:16 | 50.60640 | 14.47595 | 31951 ft | 443 kts | 320° |
| 2026-05-04 19:17 | 50.65619 | 14.41853 | 31955 ft | 443 kts | 320° |
| 2026-05-04 19:17 | 50.70609 | 14.36129 | 31955 ft | 443 kts | 320° |
| 2026-05-04 19:18 | 50.75583 | 14.30387 | 31960 ft | 443 kts | 320° |
| 2026-05-04 19:18 | 50.80555 | 14.24636 | 31958 ft | 443 kts | 320° |
| 2026-05-04 19:19 | 50.85521 | 14.18870 | 31970 ft | 443 kts | 320° |
| 2026-05-04 19:19 | 50.90496 | 14.13084 | 31964 ft | 443 kts | 320° |
| 2026-05-04 19:20 | 50.95464 | 14.07285 | 31963 ft | 443 kts | 320° |
| 2026-05-04 19:20 | 51.00374 | 14.01529 | 31969 ft | 441 kts | 320° |
| 2026-05-04 19:21 | 51.05334 | 13.95681 | 31964 ft | 441 kts | 320° |
| 2026-05-04 19:21 | 51.10239 | 13.89908 | 31964 ft | 441 kts | 320° |
| 2026-05-04 19:22 | 51.15195 | 13.84052 | 31964 ft | 441 kts | 319° |
| 2026-05-04 19:22 | 51.20124 | 13.78206 | 31966 ft | 441 kts | 319° |
| 2026-05-04 19:23 | 51.25042 | 13.72387 | 31976 ft | 440 kts | 319° |
| 2026-05-04 19:23 | 51.29953 | 13.66563 | 31966 ft | 439 kts | 319° |
| 2026-05-04 19:24 | 51.34855 | 13.60732 | 31956 ft | 439 kts | 319° |
| 2026-05-04 19:24 | 51.39743 | 13.54885 | 31958 ft | 439 kts | 319° |
| 2026-05-04 19:25 | 51.44635 | 13.49020 | 31958 ft | 439 kts | 319° |
| 2026-05-04 19:25 | 51.49517 | 13.43144 | 31952 ft | 439 kts | 319° |
| 2026-05-04 19:26 | 51.54405 | 13.37255 | 31939 ft | 439 kts | 319° |
| 2026-05-04 19:26 | 51.59288 | 13.31350 | 31939 ft | 439 kts | 319° |
| 2026-05-04 19:27 | 51.64157 | 13.25434 | 31935 ft | 438 kts | 319° |
| 2026-05-04 19:27 | 51.69026 | 13.19515 | 31941 ft | 438 kts | 319° |
| 2026-05-04 19:28 | 51.73890 | 13.13589 | 31940 ft | 438 kts | 319° |
| 2026-05-04 19:28 | 51.78755 | 13.07640 | 31943 ft | 438 kts | 318° |
| 2026-05-04 19:29 | 51.83599 | 13.01700 | 31943 ft | 436 kts | 318° |
| 2026-05-04 19:29 | 51.88423 | 12.95767 | 31939 ft | 436 kts | 318° |
| 2026-05-04 19:30 | 51.93258 | 12.89803 | 31936 ft | 436 kts | 318° |
| 2026-05-04 19:30 | 51.98091 | 12.83830 | 31941 ft | 436 kts | 318° |
| 2026-05-04 19:31 | 52.02909 | 12.77857 | 31943 ft | 437 kts | 318° |
| 2026-05-04 19:31 | 52.07739 | 12.71850 | 31964 ft | 436 kts | 318° |
| 2026-05-04 19:32 | 52.12518 | 12.65894 | 31945 ft | 435 kts | 317° |
| 2026-05-04 19:32 | 52.17320 | 12.59887 | 31942 ft | 435 kts | 317° |
| 2026-05-04 19:33 | 52.22128 | 12.53863 | 31942 ft | 435 kts | 317° |
| 2026-05-04 19:33 | 52.26922 | 12.47825 | 31945 ft | 435 kts | 317° |
| 2026-05-04 19:34 | 52.31743 | 12.41721 | 31947 ft | 436 kts | 317° |
| 2026-05-04 19:34 | 52.36544 | 12.35672 | 31968 ft | 435 kts | 317° |
| 2026-05-04 19:35 | 52.41242 | 12.29715 | 31949 ft | 432 kts | 316° |
| 2026-05-04 19:35 | 52.45995 | 12.23679 | 31947 ft | 432 kts | 316° |
| 2026-05-04 19:36 | 52.50746 | 12.17624 | 31950 ft | 432 kts | 316° |
| 2026-05-04 19:36 | 52.55489 | 12.11553 | 31941 ft | 432 kts | 316° |
| 2026-05-04 19:37 | 52.60226 | 12.05481 | 31957 ft | 432 kts | 316° |
| 2026-05-04 19:37 | 52.64971 | 11.99371 | 31973 ft | 433 kts | 316° |
| 2026-05-04 19:38 | 52.69673 | 11.93184 | 31955 ft | 434 kts | 315° |
| 2026-05-04 19:38 | 52.74345 | 11.86861 | 31942 ft | 434 kts | 315° |
| 2026-05-04 19:38 | 52.76681 | 11.83704 | 31566 ft | 429 kts | 315° |
| 2026-05-04 19:39 | 52.78981 | 11.80593 | 30962 ft | 427 kts | 315° |
| 2026-05-04 19:39 | 52.81278 | 11.77479 | 30267 ft | 427 kts | 315° |
| 2026-05-04 19:39 | 52.83572 | 11.74367 | 29439 ft | 428 kts | 315° |
| 2026-05-04 19:39 | 52.85877 | 11.71240 | 28668 ft | 428 kts | 315° |
| 2026-05-04 19:40 | 52.88179 | 11.68107 | 28047 ft | 429 kts | 315° |
| 2026-05-04 19:40 | 52.90466 | 11.64988 | 27427 ft | 425 kts | 315° |
| 2026-05-04 19:40 | 52.92740 | 11.61871 | 26778 ft | 423 kts | 315° |
| 2026-05-04 19:40 | 52.95007 | 11.58781 | 26129 ft | 420 kts | 315° |
| 2026-05-04 19:41 | 52.97258 | 11.55710 | 25498 ft | 418 kts | 315° |
| 2026-05-04 19:41 | 52.99495 | 11.52657 | 24911 ft | 415 kts | 315° |
| 2026-05-04 19:41 | 53.01714 | 11.49607 | 24292 ft | 413 kts | 315° |
| 2026-05-04 19:41 | 53.03919 | 11.46580 | 23668 ft | 411 kts | 315° |
| 2026-05-04 19:42 | 53.06122 | 11.43556 | 22968 ft | 410 kts | 315° |
| 2026-05-04 19:42 | 53.08313 | 11.40541 | 22296 ft | 407 kts | 316° |
| 2026-05-04 19:42 | 53.10484 | 11.37555 | 21639 ft | 404 kts | 316° |
| 2026-05-04 19:42 | 53.12639 | 11.34584 | 21001 ft | 400 kts | 316° |
| 2026-05-04 19:43 | 53.14738 | 11.31679 | 20415 ft | 396 kts | 316° |
| 2026-05-04 19:43 | 53.16846 | 11.28759 | 19842 ft | 391 kts | 316° |
| 2026-05-04 19:43 | 53.18935 | 11.25862 | 19285 ft | 388 kts | 316° |
| 2026-05-04 19:43 | 53.21007 | 11.22992 | 18764 ft | 387 kts | 317° |
| 2026-05-04 19:44 | 53.23074 | 11.20126 | 18259 ft | 386 kts | 317° |
| 2026-05-04 19:44 | 53.25136 | 11.17254 | 17685 ft | 385 kts | 317° |
| 2026-05-04 19:44 | 53.27190 | 11.14395 | 17133 ft | 384 kts | 317° |
| 2026-05-04 19:44 | 53.29241 | 11.11541 | 16599 ft | 383 kts | 317° |
| 2026-05-04 19:45 | 53.31290 | 11.08686 | 16063 ft | 382 kts | 317° |
| 2026-05-04 19:45 | 53.33325 | 11.05839 | 15556 ft | 381 kts | 317° |
| 2026-05-04 19:45 | 53.35351 | 11.03003 | 15075 ft | 379 kts | 317° |
| 2026-05-04 19:45 | 53.37369 | 11.00169 | 14583 ft | 376 kts | 317° |
| 2026-05-04 19:46 | 53.39361 | 10.97372 | 14069 ft | 371 kts | 317° |
| 2026-05-04 19:46 | 53.41325 | 10.94612 | 13549 ft | 365 kts | 317° |
| 2026-05-04 19:46 | 53.43260 | 10.91889 | 13025 ft | 359 kts | 317° |
| 2026-05-04 19:46 | 53.45155 | 10.89216 | 12533 ft | 353 kts | 317° |
| 2026-05-04 19:47 | 53.47024 | 10.86581 | 12046 ft | 348 kts | 317° |
| 2026-05-04 19:47 | 53.48837 | 10.84018 | 11574 ft | 342 kts | 317° |
| 2026-05-04 19:47 | 53.50681 | 10.81410 | 11124 ft | 340 kts | 317° |
| 2026-05-04 19:47 | 53.52462 | 10.78894 | 10854 ft | 329 kts | 317° |
| 2026-05-04 19:48 | 53.54177 | 10.76466 | 10650 ft | 316 kts | 316° |
| 2026-05-04 19:48 | 53.55823 | 10.74128 | 10471 ft | 303 kts | 316° |
| 2026-05-04 19:48 | 53.57398 | 10.71895 | 10313 ft | 290 kts | 316° |
| 2026-05-04 19:48 | 53.58903 | 10.69759 | 9987 ft | 285 kts | 316° |
| 2026-05-04 19:49 | 53.60412 | 10.67609 | 9510 ft | 284 kts | 316° |
| 2026-05-04 19:49 | 53.61936 | 10.65429 | 9022 ft | 283 kts | 316° |
| 2026-05-04 19:49 | 53.63434 | 10.63291 | 8565 ft | 282 kts | 316° |
| 2026-05-04 19:49 | 53.64929 | 10.61159 | 8114 ft | 280 kts | 316° |
| 2026-05-04 19:50 | 53.66407 | 10.59044 | 7686 ft | 279 kts | 316° |
| 2026-05-04 19:50 | 53.67884 | 10.56933 | 7259 ft | 277 kts | 316° |
| 2026-05-04 19:50 | 53.69353 | 10.54828 | 6841 ft | 276 kts | 316° |
| 2026-05-04 19:50 | 53.70778 | 10.52697 | 6423 ft | 273 kts | 309° |
| 2026-05-04 19:51 | 53.71815 | 10.50055 | 5991 ft | 268 kts | 296° |
| 2026-05-04 19:51 | 53.72667 | 10.47259 | 5559 ft | 267 kts | 294° |
| 2026-05-04 19:51 | 53.73489 | 10.44452 | 5113 ft | 266 kts | 294° |
| 2026-05-04 19:51 | 53.74307 | 10.41646 | 4670 ft | 266 kts | 294° |
| 2026-05-04 19:52 | 53.75117 | 10.38865 | 4198 ft | 264 kts | 294° |
| 2026-05-04 19:52 | 53.75831 | 10.36072 | 3754 ft | 257 kts | 283° |
| 2026-05-04 19:52 | 53.75968 | 10.34410 | 3510 ft | 252 kts | 269° |
| 2026-05-04 19:52 | 53.75846 | 10.31719 | 3177 ft | 247 kts | 264° |
| 2026-05-04 19:53 | 53.75669 | 10.28828 | 2970 ft | 238 kts | 264° |
| 2026-05-04 19:53 | 53.75502 | 10.26171 | 2935 ft | 224 kts | 262° |
| 2026-05-04 19:53 | 53.75051 | 10.23667 | 2941 ft | 220 kts | 244° |
| 2026-05-04 19:53 | 53.74272 | 10.21566 | 2942 ft | 200 kts | 234° |
| 2026-05-04 19:54 | 53.73359 | 10.19797 | 3006 ft | 201 kts | 232° |
| 2026-05-04 19:54 | 53.72464 | 10.17982 | 2834 ft | 201 kts | 232° |
| 2026-05-04 19:54 | 53.71590 | 10.16200 | 2568 ft | 193 kts | 231° |
| 2026-05-04 19:54 | 53.70745 | 10.14477 | 2295 ft | 187 kts | 232° |
| 2026-05-04 19:55 | 53.69927 | 10.12812 | 2028 ft | 181 kts | 232° |
| 2026-05-04 19:55 | 53.69108 | 10.11144 | 1772 ft | 183 kts | 232° |
| 2026-05-04 19:55 | 53.68333 | 10.09571 | 1592 ft | 168 kts | 232° |
| 2026-05-04 19:55 | 53.67632 | 10.08148 | 1338 ft | 144 kts | 233° |
| 2026-05-04 19:56 | 53.66996 | 10.06852 | 1124 ft | 143 kts | 233° |
| 2026-05-04 19:56 | 53.66372 | 10.05560 | 964 ft | 142 kts | 234° |
| 2026-05-04 19:56 | 53.65745 | 10.04288 | 768 ft | 141 kts | 232° |
| 2026-05-04 19:56 | 53.65100 | 10.03014 | 574 ft | 140 kts | 234° |
| 2026-05-04 19:57 | 53.64460 | 10.01692 | 381 ft | 141 kts | 233° |
| 2026-05-04 19:57 | 53.63828 | 10.00414 | 162 ft | 139 kts | 233° |
| 2026-05-04 19:57 | 53.63232 | 9.99222 | 55 ft | 134 kts | 233° |
| 2026-05-04 19:57 | 53.62717 | 9.98164 | 48 ft | 88 kts | 230° |
| 2026-05-04 19:58 | 53.62549 | 9.97828 | 46 ft | 14 kts | 227° |
| 2026-05-04 19:58 | 53.62465 | 9.97808 | 47 ft | 15 kts | 136° |
| 2026-05-04 19:58 | 53.62430 | 9.97984 | 52 ft | 18 kts | 79° |
| 2026-05-04 19:58 | 53.62492 | 9.98170 | 52 ft | 21 kts | 50° |
| 2026-05-04 19:59 | 53.62606 | 9.98382 | 52 ft | 25 kts | 54° |
| 2026-05-04 19:59 | 53.62718 | 9.98612 | 52 ft | 26 kts | 50° |
| 2026-05-04 19:59 | 53.62838 | 9.98851 | 52 ft | 24 kts | 50° |
| 2026-05-04 19:59 | 53.62937 | 9.99052 | 52 ft | 22 kts | 50° |
| 2026-05-04 20:00 | 53.63039 | 9.99259 | 52 ft | 23 kts | 51° |
| 2026-05-04 20:00 | 53.63135 | 9.99489 | 52 ft | 24 kts | 54° |
| 2026-05-04 20:00 | 53.63210 | 9.99646 | 53 ft | 12 kts | 50° |
| 2026-05-04 20:00 | 53.63269 | 9.99751 | 54 ft | 13 kts | 44° |
| 2026-05-04 20:01 | 53.63333 | 9.99876 | 54 ft | 15 kts | 51° |
| 2026-05-04 20:01 | 53.63400 | 10.00014 | 54 ft | 16 kts | 49° |
| 2026-05-04 20:01 | 53.63433 | 10.00191 | 54 ft | 14 kts | 99° |
| 2026-05-04 20:01 | 53.63419 | 10.00218 | 53 ft | 2 kts | 134° |
| 2026-05-04 20:02 | 53.63413 | 10.00242 | 54 ft | 3 kts | 105° |
| 2026-05-04 20:02 | 53.63412 | 10.00279 | 54 ft | 0 kts | 103° |
| 2026-05-04 20:02 | 53.63412 | 10.00283 | 54 ft | 2 kts | 94° |
| 2026-05-04 20:02 | 53.63413 | 10.00320 | 54 ft | 4 kts | 86° |
| 2026-05-04 20:03 | 53.63414 | 10.00337 | 54 ft | 0 kts | 85° |
| 2026-05-04 20:03 | 53.63414 | 10.00350 | 54 ft | 2 kts | 85° |
| 2026-05-04 20:03 | 53.63414 | 10.00355 | 54 ft | 0 kts | 85° |